x

Great Slave Lake, North Arm (45150) Wave Buoy

1:00am - Thu 3rd Sep 2015 All times are UTC.

  • Sig Wave height 1.6ft
  • Peak Period 3s
  • Wind
    13mph, 16mph gusts
  • Sea Temp 54°f
  • Air Temp 52°f
  • Sea Pressure 1013.4mb

More Historic Weather Station data

Upgrade to MSW Pro to gain access to the past 30 days of data for over 8000 Wavebouys and Weather Stations around the globe.

Join Pro

Comparision Forecast

View Surf forecast
   
Thu 09/03 1:00am 1.6ft 3s 13 16 mph 1013.4mb 54f 52f
12:00am 2ft 12s 13 16 mph 1013.1mb 54f 52f
Wed 09/02 11:00pm 1.6ft 14s 13 16 mph 1012.8mb 54f 52f
10:00pm 2ft 13s 13 16 mph 1012mb 54f 51f
9:00pm 1.6ft 14s 13 16 mph 1012mb 54f 51f
8:00pm 1.6ft 12s 13 16 mph 1012mb 54f 49f
7:00pm 1.6ft 4s 13 16 mph 1011.7mb 54f 49f
6:00pm 2.5ft 4s 9 13 mph 1011.2mb 54f 50f
5:00pm 2.5ft 4s 11 13 mph 1010.6mb 54f 49f
4:00pm 2.5ft 4s 16 18 mph 1009.8mb 54f 48f
3:00pm 3.5ft 4s 18 20 mph 1009.2mb 54f 47f
2:00pm 3.5ft 4s 18 22 mph 1008.6mb 54f 47f
1:00pm 3.5ft 4s 20 25 mph 1007.9mb 54f 47f
12:00pm 3.5ft 4s 20 25 mph 1007.7mb 54f 48f
11:00am 3ft 4s 20 22 mph 1007.5mb 54f 49f
10:00am 2.5ft 4s 18 22 mph 1007.1mb 54f 50f
9:00am 3ft 4s 16 20 mph 1006.4mb 54f 51f
8:00am 3ft 4s 20 22 mph 1006mb 54f 51f
7:00am 3ft 4s 18 22 mph 1005.6mb 54f 52f
6:00am 2.5ft 4s 20 22 mph 1005.5mb 55f 52f
5:00am 1.6ft 13s 20 22 mph 1005mb 55f 53f
4:00am 0.7ft 3s 13 16 mph 1004.2mb 55f 55f
3:00am 0.7ft 3s 7
mph
1004mb 55f 55f
2:00am 0.7ft 4s 7 9 mph 1003.5mb 55f 55f
1:00am 1ft 4s 2 4 mph 1003.2mb 55f 55f
12:00am 1ft 4s 4 7 mph 1002.7mb 55f 54f
Tue 09/01 11:00pm 1ft 4s 7
mph
1002.3mb 55f 53f
10:00pm 1.3ft 4s 7 9 mph 1002.2mb 55f 53f
9:00pm 1.3ft 4s 7 9 mph 1002mb 55f 52f
8:00pm 1.3ft 4s 7 9 mph 1001.8mb 55f 52f
7:00pm 1.6ft 4s 7
mph
1001.2mb 55f 52f
6:00pm 1.6ft 4s 9
mph
1000.5mb 54f 52f
5:00pm 1.6ft 4s 9 11 mph 1000.1mb 54f 53f
4:00pm 2ft 4s 11 13 mph 999.5mb 54f 53f
3:00pm  -   -  13
mph
998.9mb - 54f
2:00pm 2ft 14s 13 16 mph 998.5mb 54f 54f
1:00pm 2ft 14s 13 16 mph 997.9mb 54f 53f
12:00pm 2ft 14s 13 16 mph 997.4mb 54f 53f
11:00am 1.6ft 4s 13 16 mph 996.9mb 54f 53f
10:00am 2.5ft 4s 11 13 mph 996.5mb 54f 54f
9:00am 2.5ft 4s 16 18 mph 996mb 54f 55f
8:00am 2.5ft 14s 13 18 mph 995.5mb 54f 55f
7:00am 2ft 5s 11 13 mph 995mb 54f 54f
6:00am 2ft 4s 13 18 mph 994.9mb 54f 55f
5:00am 2.5ft 4s 4 7 mph 994.4mb 54f 55f
4:00am 2.5ft 4s 9 11 mph 993.7mb 54f 56f
3:00am 3ft 4s 16 18 mph 993.4mb 54f 56f
2:00am 2.5ft 4s 18 22 mph 993mb 54f 57f
1:00am 1.6ft 14s 20 22 mph 992.5mb 54f 58f
12:00am 1.3ft 4s 13 16 mph 991.9mb 55f 58f
Mon 08/31 11:00pm 1.6ft 4s 7 9 mph 991.2mb 55f 57f
10:00pm 2ft 4s 9 11 mph 990.9mb 55f 57f
9:00pm 2.5ft 5s 11 13 mph 990.4mb 54f 57f
8:00pm 2.5ft 5s 13 18 mph 990.1mb 54f 56f
7:00pm 2.5ft 4s 13 16 mph 989.7mb 54f 55f
6:00pm 2.5ft 4s 16 18 mph 989.6mb 54f 55f
5:00pm 2.5ft 4s 16 18 mph 989.5mb 54f 55f
4:00pm 2.5ft 4s 13 16 mph 989.4mb 54f 55f
3:00pm 2.5ft 4s 16 18 mph 989mb 54f 55f
2:00pm 2ft 4s 16 18 mph 988.9mb 54f 55f
1:00pm 2ft 3s 16 18 mph 989mb 54f 55f
12:00pm 1.6ft 4s 13 16 mph 988.8mb 54f 56f
11:00am 1.6ft 4s 13 16 mph 988.9mb 54f 56f
10:00am 1.6ft 4s 13 16 mph 988.7mb 54f 56f
9:00am 1.6ft 4s 11 13 mph 988.7mb 54f 57f
8:00am 1.6ft 4s 11 16 mph 988.7mb 54f 58f
7:00am 2ft 4s 9 11 mph 988.7mb 53f 56f
6:00am 2.5ft 4s 13 16 mph 988.8mb 53f 55f
5:00am 3ft 4s 18 22 mph 988.7mb 54f 56f
4:00am 3ft 4s 20 22 mph 988.7mb 54f 56f
3:00am 3.5ft 4s 18 22 mph 988.8mb 54f 56f
2:00am 3.5ft 4s 20 25 mph 989mb 54f 57f
1:00am 3.5ft 4s 18 20 mph 989.5mb 54f 57f
12:00am 3.5ft 4s 20 25 mph 989.5mb 54f 57f
Sun 08/30 11:00pm 3.5ft 4s 18 22 mph 989.7mb 54f 57f
10:00pm 3ft 4s 18 22 mph 990.2mb 54f 57f
9:00pm 3.5ft 4s 18 20 mph 990.3mb 54f 57f
8:00pm 3.5ft 4s 18 20 mph 990.8mb 54f 56f
7:00pm 3.5ft 4s 18 22 mph 991.4mb 54f 56f
6:00pm 3.5ft 4s 20 22 mph 991.6mb 54f 56f
5:00pm 3ft 4s 20 22 mph 992.4mb 54f 56f
4:00pm 3ft 4s 18 22 mph 992.9mb 54f 56f
3:00pm 3.5ft 4s 20 22 mph 993.2mb 54f 56f
2:00pm 4ft 5s 22 25 mph 993.9mb 54f 57f
1:00pm 4ft 5s 22 27 mph 994mb 54f 55f
12:00pm 4ft 4s 25 29 mph 994.4mb 54f 55f
11:00am 3.5ft 5s 25 31 mph 995mb 54f 56f
10:00am 3.5ft 4s 22 27 mph 996.1mb 54f 56f
9:00am 3.5ft 4s 22 29 mph 997.2mb 55f 56f
8:00am 3ft 4s 20 27 mph 998.5mb 55f 56f
7:00am 3ft 4s 20 25 mph 999.6mb 55f 56f
6:00am 2.5ft 4s 18 22 mph 1000.6mb 55f 56f
5:00am 2.5ft 3s 18 20 mph 1001.1mb 55f 56f
4:00am 1.6ft 14s 18 22 mph 1001.8mb 55f 57f
3:00am 1.3ft 14s 13 16 mph 1002.3mb 56f 56f